Coates, United Kingdom
Current Conditions -  °F | °C
As of 10:50 PM on Friday 28 Nov 2014 (Local Time) from EGVA Reporting Station
Drizzle Drizzle  
Wind Chill: 10°   Ceiling: Unl
Heat Index: 10°   Visibility: 6mi
Dew Point:   Wind: 9mph
Humidity: 94%   Direction: 60°ENE
Pressure: 29.69"   Gusts: NA
Location:  51.71°N, 2.03°W
Report Text: EGVA 282250Z AUTO 06008KT 9999 -DZ FEW085 10/09 A2969 RMK AO2 RAE2217DZB2217E2219B2250 $
Loading
Personal Weather Stations






























Interactive Weather Map New forecast layout! Learn more

10-Day Weather Forecast

Advertisements
Track Severe Weather on mobile